Prestatyn, United Kingdom
Current Conditions -  °F | °C
As of 6:20 PM on Thursday 30 Oct 2014 (Local Time) from EGNR Reporting Station
Scattered Clouds Scattered Clouds  
Wind Chill: 63°   Ceiling: Unl
Heat Index: 63°   Visibility: 6mi
Dew Point: 59°   Wind: 7mph
Humidity: 88%   Direction: 150°SSE
Pressure: 29.97"   Gusts: NA
Location:  53.34°N, 3.41°W
Report Text: EGNR 301820Z 15006KT 9999 SCT025 17/15 Q1015
Loading
Personal Weather Stations






























Interactive Weather Map
Tropical Storm Tracking
New forecast layout! Learn more

10-Day Weather Forecast

Advertisements
Track Severe Weather on mobile